createdAt,value
2023-03-06T00:01:00.742Z,5.50
2023-03-06T00:04:02.652Z,6.36
2023-03-06T00:07:04.539Z,5.29
2023-03-06T00:10:06.663Z,5.87
2023-03-06T00:13:10.606Z,6.00
2023-03-06T00:16:12.576Z,6.00
2023-03-06T00:19:14.481Z,6.85
2023-03-06T00:22:16.595Z,5.44
2023-03-06T00:25:19.400Z,6.36
2023-03-06T00:28:21.387Z,5.78
2023-03-06T00:31:23.278Z,7.27
2023-03-06T00:34:26.013Z,7.18
2023-03-06T00:37:27.940Z,7.26
2023-03-06T00:40:29.775Z,7.28
2023-03-06T00:43:31.717Z,7.40
2023-03-06T00:46:33.510Z,7.13
2023-03-06T00:49:35.325Z,7.12
2023-03-06T00:52:37.182Z,7.06
2023-03-06T00:55:39.026Z,6.48
2023-03-06T00:58:40.912Z,6.86
2023-03-06T01:01:42.874Z,6.68
2023-03-06T01:04:44.921Z,6.74
2023-03-06T01:07:46.821Z,7.09
2023-03-06T01:10:48.599Z,6.35
2023-03-06T01:13:50.482Z,6.73
2023-03-06T01:16:52.417Z,6.75
2023-03-06T01:19:54.279Z,6.88
2023-03-06T01:22:56.680Z,6.76
2023-03-06T01:25:58.595Z,7.04
2023-03-06T01:29:00.935Z,7.18
2023-03-06T01:32:02.875Z,7.03
2023-03-06T01:35:05.511Z,7.23
2023-03-06T01:38:07.540Z,6.83
2023-03-06T01:41:10.953Z,7.22
2023-03-06T01:44:13.902Z,7.36
2023-03-06T01:47:15.784Z,7.42
2023-03-06T01:50:17.610Z,7.37
2023-03-06T01:53:19.758Z,7.08
2023-03-06T01:56:21.611Z,6.71
2023-03-06T01:59:23.828Z,6.99
2023-03-06T02:02:25.706Z,6.87
2023-03-06T02:05:27.672Z,6.74
2023-03-06T02:08:29.617Z,7.12
2023-03-06T02:11:31.445Z,6.97
2023-03-06T02:14:33.313Z,7.35
2023-03-06T02:17:35.224Z,6.31
2023-03-06T02:20:38.013Z,6.60
2023-03-06T02:23:49.131Z,6.20
2023-03-06T02:26:51.002Z,7.09
2023-03-06T02:29:52.810Z,6.21
2023-03-06T02:32:54.742Z,7.10
2023-03-06T02:35:58.144Z,7.49
2023-03-06T02:39:00.092Z,6.82
2023-03-06T02:42:02.007Z,7.01
2023-03-06T02:45:04.457Z,7.74
2023-03-06T02:48:06.748Z,7.72
2023-03-06T02:51:08.921Z,7.61
2023-03-06T02:54:11.118Z,7.30
2023-03-06T02:57:13.085Z,7.17
2023-03-06T03:00:15.497Z,7.08
2023-03-06T03:03:17.549Z,6.68
2023-03-06T03:06:19.425Z,6.51
2023-03-06T03:09:21.483Z,7.65
2023-03-06T03:12:23.468Z,7.22
2023-03-06T03:15:25.444Z,7.52
2023-03-06T03:18:27.260Z,7.63
2023-03-06T03:21:29.116Z,7.64
2023-03-06T03:24:31.081Z,7.79
2023-03-06T03:27:32.962Z,7.54
2023-03-06T03:30:34.761Z,7.24
2023-03-06T03:33:36.826Z,7.74
2023-03-06T03:36:38.888Z,7.56
2023-03-06T03:39:40.872Z,7.91
2023-03-06T03:42:43.097Z,7.54
2023-03-06T03:45:44.945Z,7.64
2023-03-06T03:48:47.055Z,7.84
2023-03-06T03:51:48.912Z,7.68
2023-03-06T03:54:50.790Z,7.83
2023-03-06T03:57:52.688Z,7.34
2023-03-06T04:00:54.502Z,6.76
2023-03-06T04:03:56.374Z,7.05
2023-03-06T04:06:58.296Z,7.65
2023-03-06T04:10:00.165Z,7.32
2023-03-06T04:13:02.058Z,7.08
2023-03-06T04:16:04.075Z,7.83
2023-03-06T04:19:06.035Z,8.45
2023-03-06T04:22:07.868Z,7.18
2023-03-06T04:25:09.844Z,7.10
2023-03-06T04:28:12.200Z,7.69
2023-03-06T04:31:14.143Z,8.24
2023-03-06T04:34:15.991Z,7.95
2023-03-06T04:37:21.953Z,7.31
2023-03-06T04:40:28.332Z,6.99
2023-03-06T04:43:30.394Z,6.58
2023-03-06T04:46:32.663Z,7.33
2023-03-06T04:49:34.532Z,6.70
2023-03-06T04:52:36.466Z,7.24
2023-03-06T04:55:38.547Z,7.26
2023-03-06T04:58:40.548Z,6.52
2023-03-06T05:01:42.490Z,6.42
2023-03-06T05:04:44.438Z,6.47
2023-03-06T05:07:46.369Z,6.95
2023-03-06T05:10:53.091Z,7.31
2023-03-06T05:13:54.924Z,5.94
2023-03-06T05:16:56.992Z,6.68
2023-03-06T05:19:58.804Z,6.30
2023-03-06T05:23:01.191Z,6.75
2023-03-06T05:26:05.172Z,6.83
2023-03-06T05:29:07.128Z,6.97
2023-03-06T05:32:09.035Z,6.61
2023-03-06T05:35:15.212Z,6.69
2023-03-06T05:38:17.038Z,6.72
2023-03-06T05:41:18.901Z,6.32
2023-03-06T05:44:21.059Z,6.59
2023-03-06T05:47:22.886Z,6.69
2023-03-06T05:50:24.771Z,7.20
2023-03-06T05:53:26.840Z,7.36
2023-03-06T05:56:28.706Z,6.83
2023-03-06T05:59:32.886Z,6.52
2023-03-06T06:02:34.789Z,6.25
2023-03-06T06:05:39.027Z,6.39
2023-03-06T06:08:41.113Z,6.54
2023-03-06T06:11:43.018Z,5.66
2023-03-06T06:14:45.396Z,5.88
2023-03-06T06:17:47.262Z,6.93
2023-03-06T06:20:49.214Z,6.96
2023-03-06T06:23:51.179Z,6.68
2023-03-06T06:26:53.655Z,6.37
2023-03-06T06:29:55.548Z,5.95
2023-03-06T06:32:57.380Z,6.24
2023-03-06T06:35:59.221Z,6.59
2023-03-06T06:39:01.385Z,6.09
2023-03-06T06:42:27.994Z,6.34
2023-03-06T06:45:25.463Z,8.39
2023-03-06T06:48:27.305Z,8.39
2023-03-06T06:51:32.874Z,7.93
2023-03-06T06:54:34.972Z,7.18
2023-03-06T06:57:36.866Z,7.10
2023-03-06T07:00:38.707Z,7.30
2023-03-06T07:03:40.831Z,7.45
2023-03-06T07:06:42.846Z,6.05
2023-03-06T07:09:44.817Z,7.02
2023-03-06T07:12:46.798Z,7.89
2023-03-06T07:15:49.405Z,8.01
2023-03-06T07:18:51.456Z,7.65
2023-03-06T07:21:53.334Z,7.39
2023-03-06T07:24:55.263Z,7.84
2023-03-06T07:27:57.365Z,7.41
2023-03-06T07:31:01.842Z,7.19
2023-03-06T07:34:05.111Z,7.06
2023-03-06T07:37:07.088Z,7.12
2023-03-06T07:40:10.072Z,5.88
2023-03-06T07:43:19.078Z,6.08
2023-03-06T07:46:21.518Z,6.36
2023-03-06T07:49:23.400Z,5.95
2023-03-06T07:52:26.228Z,6.41
2023-03-06T07:55:28.112Z,7.26
2023-03-06T07:58:30.062Z,6.46
2023-03-06T08:01:31.929Z,6.67
2023-03-06T08:04:37.107Z,6.19
2023-03-06T08:07:38.927Z,5.94
2023-03-06T08:10:41.132Z,5.59
2023-03-06T08:13:45.803Z,6.00
2023-03-06T08:16:49.051Z,6.17
2023-03-06T08:19:50.902Z,6.70
2023-03-06T08:22:52.863Z,6.69
2023-03-06T08:25:58.399Z,7.37
2023-03-06T08:29:01.124Z,7.65
2023-03-06T08:32:03.233Z,7.14
2023-03-06T08:35:05.580Z,7.31
2023-03-06T08:38:07.693Z,6.71
2023-03-06T08:41:12.385Z,6.93
2023-03-06T08:44:14.356Z,8.24
2023-03-06T08:47:16.342Z,7.09
2023-03-06T08:50:19.036Z,7.14
2023-03-06T08:53:22.701Z,7.98
2023-03-06T08:56:31.371Z,7.60
2023-03-06T08:59:33.340Z,7.13
2023-03-06T09:02:35.353Z,6.61
2023-03-06T09:05:38.668Z,6.13
2023-03-06T09:08:43.263Z,6.42
2023-03-06T09:11:45.229Z,8.13
2023-03-06T09:14:47.186Z,7.61
2023-03-06T09:17:49.146Z,6.52
2023-03-06T09:20:53.406Z,8.56
2023-03-06T09:23:55.369Z,7.80
2023-03-06T09:26:57.217Z,9.14
2023-03-06T09:29:59.096Z,7.71
2023-03-06T09:33:00.963Z,9.73
2023-03-06T09:36:02.915Z,9.94
2023-03-06T09:39:07.241Z,9.44
2023-03-06T09:42:14.516Z,8.25
2023-03-06T09:45:16.690Z,8.37
2023-03-06T09:48:18.559Z,8.61
2023-03-06T09:51:21.358Z,8.71
2023-03-06T09:54:25.716Z,11.08
2023-03-06T09:57:57.164Z,10.10
2023-03-06T10:01:05.054Z,8.64
2023-03-06T10:04:07.155Z,9.53
2023-03-06T10:07:13.900Z,9.93
2023-03-06T10:10:26.537Z,10.14
2023-03-06T10:13:30.850Z,10.14
2023-03-06T10:16:33.176Z,9.18
2023-03-06T10:19:40.088Z,9.03
2023-03-06T10:23:05.174Z,8.81
2023-03-06T10:26:07.523Z,8.96
2023-03-06T10:29:09.551Z,9.39
2023-03-06T10:32:12.927Z,8.57
2023-03-06T10:35:30.359Z,7.98
2023-03-06T10:38:32.718Z,8.58
2023-03-06T10:41:36.668Z,8.02
2023-03-06T10:44:38.622Z,8.55
2023-03-06T10:47:40.631Z,8.38
2023-03-06T10:50:42.448Z,7.51
2023-03-06T10:53:57.191Z,7.85
2023-03-06T10:56:59.182Z,9.00
2023-03-06T11:00:04.708Z,8.32
2023-03-06T11:03:17.007Z,8.36
2023-03-06T11:06:32.190Z,7.50
2023-03-06T11:09:34.240Z,7.87
2023-03-06T11:12:39.780Z,7.72
2023-03-06T11:15:41.666Z,7.48
2023-03-06T11:18:44.021Z,8.61
2023-03-06T11:21:59.276Z,8.62
2023-03-06T11:25:01.435Z,7.82
2023-03-06T11:28:36.035Z,7.92
2023-03-06T11:31:38.636Z,8.63
2023-03-06T11:34:43.785Z,8.64
2023-03-06T11:38:00.020Z,8.17
2023-03-06T11:41:02.917Z,9.52
2023-03-06T11:44:06.849Z,8.17
2023-03-06T11:47:11.615Z,8.38
2023-03-06T11:50:13.642Z,9.17
2023-03-06T11:53:16.865Z,8.35
2023-03-06T11:56:19.026Z,8.85
2023-03-06T11:59:39.666Z,9.21
2023-03-06T12:02:44.237Z,8.93
2023-03-06T12:05:48.599Z,9.41
2023-03-06T12:08:55.906Z,9.98
2023-03-06T12:11:57.827Z,9.52
2023-03-06T12:15:20.024Z,10.11
2023-03-06T12:18:31.391Z,10.12
2023-03-06T12:21:33.350Z,10.34
2023-03-06T12:24:55.261Z,10.43
2023-03-06T12:27:57.282Z,10.07
2023-03-06T12:31:25.843Z,9.21
2023-03-06T12:34:39.847Z,8.79
2023-03-06T12:37:47.791Z,9.31
2023-03-06T12:40:59.396Z,9.01
2023-03-06T12:44:10.706Z,9.56
2023-03-06T12:47:14.484Z,7.96
2023-03-06T12:50:21.379Z,8.75
2023-03-06T12:53:29.881Z,8.86
2023-03-06T12:56:32.018Z,9.75
2023-03-06T12:59:38.092Z,8.66
2023-03-06T13:02:49.940Z,8.40
2023-03-06T13:06:00.972Z,9.10
2023-03-06T13:09:13.194Z,9.02
2023-03-06T13:12:18.322Z,8.44
2023-03-06T13:15:28.055Z,9.84
2023-03-06T13:18:32.956Z,9.02
2023-03-06T13:21:53.325Z,8.75
2023-03-06T13:25:18.369Z,8.29
2023-03-06T13:28:24.396Z,7.50
2023-03-06T13:31:27.690Z,7.57
2023-03-06T13:34:37.762Z,8.68
2023-03-06T13:37:47.835Z,8.47
2023-03-06T13:40:49.923Z,8.43
2023-03-06T13:43:55.928Z,8.28
2023-03-06T13:47:02.228Z,8.24
2023-03-06T13:50:12.553Z,8.74
2023-03-06T13:53:27.461Z,8.11
2023-03-06T13:56:29.446Z,8.99
2023-03-06T13:59:57.008Z,9.26
2023-03-06T14:03:11.018Z,8.77
2023-03-06T14:06:40.741Z,9.55
2023-03-06T14:09:43.345Z,9.31
2023-03-06T14:12:51.641Z,8.56
2023-03-06T14:15:54.684Z,8.31
2023-03-06T14:18:57.222Z,7.79
2023-03-06T14:21:59.684Z,8.93
2023-03-06T14:25:03.290Z,8.04
2023-03-06T14:28:13.762Z,7.14
2023-03-06T14:31:17.196Z,7.78
2023-03-06T14:34:23.018Z,7.31
2023-03-06T14:37:25.350Z,7.95
2023-03-06T14:40:41.686Z,8.77
2023-03-06T14:43:43.849Z,7.09
2023-03-06T14:46:46.710Z,7.55
2023-03-06T14:49:48.875Z,7.70
2023-03-06T14:52:52.476Z,8.15
2023-03-06T14:55:59.327Z,7.60
2023-03-06T14:59:01.924Z,7.01
2023-03-06T15:02:04.555Z,7.90
2023-03-06T15:05:07.202Z,7.20
2023-03-06T15:08:09.204Z,7.73
2023-03-06T15:11:11.487Z,7.15
2023-03-06T15:14:17.924Z,8.07
2023-03-06T15:17:29.078Z,7.71
2023-03-06T15:20:48.333Z,7.32
2023-03-06T15:23:51.093Z,6.74
2023-03-06T15:26:53.111Z,6.68
2023-03-06T15:30:10.281Z,7.36
2023-03-06T15:33:26.083Z,7.76
2023-03-06T15:36:29.756Z,7.10
2023-03-06T15:39:36.297Z,7.50
2023-03-06T15:42:38.693Z,6.92
2023-03-06T15:45:43.158Z,7.24
2023-03-06T15:48:51.820Z,7.72
2023-03-06T15:51:53.709Z,7.71
2023-03-06T15:54:56.298Z,7.62
2023-03-06T15:57:59.940Z,6.59
2023-03-06T16:01:01.910Z,7.39
2023-03-06T16:04:03.787Z,7.13
2023-03-06T16:07:05.703Z,7.05
2023-03-06T16:10:07.730Z,7.17
2023-03-06T16:13:14.395Z,6.37
2023-03-06T16:16:22.222Z,5.99
2023-03-06T16:19:27.164Z,6.61
2023-03-06T16:22:32.122Z,6.72
2023-03-06T16:25:34.322Z,6.45
2023-03-06T16:28:43.086Z,6.46
2023-03-06T16:31:45.009Z,5.94
2023-03-06T16:34:47.284Z,5.97
2023-03-06T16:37:51.720Z,5.96
2023-03-06T16:40:53.905Z,6.01
2023-03-06T16:43:56.096Z,6.39
2023-03-06T16:46:58.543Z,6.37
2023-03-06T16:50:02.349Z,5.91
2023-03-06T16:53:07.509Z,6.03
2023-03-06T16:56:13.732Z,6.10
2023-03-06T16:59:15.704Z,6.29
2023-03-06T17:02:17.865Z,6.37
2023-03-06T17:05:20.125Z,6.91
2023-03-06T17:08:22.556Z,6.68
2023-03-06T17:11:25.073Z,5.87
2023-03-06T17:14:27.945Z,6.60
2023-03-06T17:17:31.948Z,6.64
2023-03-06T17:20:37.244Z,6.20
2023-03-06T17:23:39.787Z,6.01
2023-03-06T17:26:49.861Z,6.28
2023-03-06T17:29:52.284Z,5.77
2023-03-06T17:33:04.126Z,6.15
2023-03-06T17:36:15.770Z,5.29
2023-03-06T17:39:30.059Z,5.65
2023-03-06T17:42:32.283Z,6.21
2023-03-06T17:45:37.236Z,5.70
2023-03-06T17:48:42.565Z,6.03
2023-03-06T17:51:45.432Z,6.46
2023-03-06T17:54:47.582Z,5.96
2023-03-06T17:57:51.886Z,5.77
2023-03-06T18:00:54.324Z,5.50
2023-03-06T18:03:57.076Z,5.83
2023-03-06T18:06:59.175Z,6.36
2023-03-06T18:10:01.802Z,6.36
2023-03-06T18:13:04.336Z,6.53
2023-03-06T18:16:07.043Z,6.02
2023-03-06T18:19:13.357Z,6.07
2023-03-06T18:22:15.868Z,6.90
2023-03-06T18:25:19.408Z,7.06
2023-03-06T18:28:21.605Z,7.21
2023-03-06T18:31:25.209Z,6.77
2023-03-06T18:34:32.200Z,6.49
2023-03-06T18:37:34.761Z,6.32
2023-03-06T18:40:41.864Z,6.33
2023-03-06T18:43:44.655Z,5.53
2023-03-06T18:46:51.775Z,6.11
2023-03-06T18:49:55.073Z,6.12
2023-03-06T18:52:57.734Z,6.03
2023-03-06T18:56:00.607Z,6.09
2023-03-06T18:59:06.894Z,7.16
2023-03-06T19:02:12.935Z,5.51
2023-03-06T19:05:16.176Z,6.28
2023-03-06T19:08:19.821Z,7.02
2023-03-06T19:11:22.882Z,7.09
2023-03-06T19:14:26.098Z,7.47
2023-03-06T19:17:28.785Z,6.26
2023-03-06T19:20:31.719Z,5.79
2023-03-06T19:23:34.249Z,6.95
2023-03-06T19:26:38.780Z,6.70
2023-03-06T19:29:47.214Z,7.11
2023-03-06T19:32:52.224Z,6.69
2023-03-06T19:35:55.428Z,7.49
2023-03-06T19:39:01.032Z,6.08
2023-03-06T19:42:04.945Z,6.27
2023-03-06T19:45:08.491Z,6.20
2023-03-06T19:48:13.652Z,6.97
2023-03-06T19:51:16.716Z,6.47
2023-03-06T19:54:23.483Z,7.43
2023-03-06T19:57:30.652Z,7.23
2023-03-06T20:00:33.369Z,6.33
2023-03-06T20:03:35.728Z,5.74
2023-03-06T20:06:43.365Z,6.18
2023-03-06T20:09:48.357Z,6.21
2023-03-06T20:12:56.916Z,6.43
2023-03-06T20:16:02.499Z,7.03
2023-03-06T20:19:06.471Z,6.59
2023-03-06T20:22:13.004Z,6.70
2023-03-06T20:25:15.763Z,7.32
2023-03-06T20:28:20.206Z,7.39
2023-03-06T20:31:23.890Z,7.48
2023-03-06T20:34:29.757Z,7.64
2023-03-06T20:37:33.562Z,8.11
2023-03-06T20:40:40.029Z,7.22
2023-03-06T20:43:42.718Z,7.62
2023-03-06T20:46:45.723Z,7.98
2023-03-06T20:49:49.772Z,6.35
2023-03-06T20:52:59.144Z,6.47
2023-03-06T20:56:02.988Z,6.85
2023-03-06T20:59:05.999Z,7.20
2023-03-06T21:02:13.125Z,6.77
2023-03-06T21:05:15.696Z,6.91
2023-03-06T21:08:20.445Z,7.52
2023-03-06T21:11:22.691Z,7.05
2023-03-06T21:14:26.169Z,7.18
2023-03-06T21:17:30.761Z,7.43
2023-03-06T21:20:38.491Z,6.85
2023-03-06T21:23:51.814Z,7.34
2023-03-06T21:30:11.399Z,7.46
2023-03-06T21:33:13.399Z,6.68
2023-03-06T21:36:15.802Z,6.93
2023-03-06T21:39:17.644Z,6.95
2023-03-06T21:42:19.501Z,7.26
2023-03-06T21:45:21.381Z,6.51
2023-03-06T21:48:23.200Z,6.81
2023-03-06T21:51:25.567Z,7.47
2023-03-06T21:54:29.329Z,6.86
2023-03-06T21:57:31.172Z,6.11
2023-03-06T22:00:36.181Z,6.26
2023-03-06T22:03:38.126Z,6.93
2023-03-06T22:06:42.791Z,7.06
2023-03-06T22:09:44.814Z,7.05
2023-03-06T22:12:47.067Z,7.44
2023-03-06T22:15:49.649Z,7.88
2023-03-06T22:18:51.810Z,7.30
2023-03-06T22:21:53.886Z,8.26
2023-03-06T22:24:55.753Z,6.82
2023-03-06T22:27:57.659Z,6.53
2023-03-06T22:31:11.709Z,7.74
2023-03-06T22:34:13.629Z,7.14
2023-03-06T22:37:15.588Z,7.01
2023-03-06T22:40:17.482Z,6.62
2023-03-06T22:43:20.072Z,6.40
2023-03-06T22:46:21.966Z,6.84
2023-03-06T22:49:23.818Z,7.01
2023-03-06T22:52:25.684Z,6.59
2023-03-06T22:55:27.550Z,6.78
2023-03-06T22:58:34.391Z,6.68
2023-03-06T23:01:36.374Z,6.87
2023-03-06T23:04:38.655Z,7.80
2023-03-06T23:07:40.537Z,6.59
2023-03-06T23:10:42.368Z,6.26
2023-03-06T23:13:47.598Z,6.33
2023-03-06T23:16:49.911Z,6.82
2023-03-06T23:19:51.799Z,7.02
2023-03-06T23:22:53.661Z,7.01
2023-03-06T23:25:58.994Z,6.48
2023-03-06T23:29:01.089Z,6.75
2023-03-06T23:32:03.007Z,6.23
2023-03-06T23:35:05.078Z,6.14
2023-03-06T23:38:07.209Z,6.16
2023-03-06T23:41:11.395Z,6.48
2023-03-06T23:44:13.244Z,6.27
2023-03-06T23:47:17.172Z,6.95
2023-03-06T23:50:19.170Z,7.22
2023-03-06T23:53:21.158Z,6.65
2023-03-06T23:56:23.580Z,6.53
2023-03-06T23:59:25.425Z,6.06
